Time;durP1;ratioP1;P1;durP2;ratioP2;P2;SDS_P1;SDS_P2;PMS_P1;PMS_P2;Temp;Humidity;BMP_temperature;BMP_pressure;BME280_temperature;BME280_humidity;BME280_pressure;Samples;Min_cycle;Max_cycle;Signal;HPM_P1;HPM_P2
2023/07/18 00:00:58;;;;;;;;;;;;;;;19.52;100.00;99823.88;5054642;28;981;-70
2023/07/18 00:03:28;;;;;;;;;;;;;;;19.44;100.00;99819.00;5054437;28;1034;-70
2023/07/18 00:05:55;;;;;;;;;;;;;;;19.32;100.00;99810.25;5054516;28;1985;-70
2023/07/18 00:08:22;;;;;;;;;;;;;;;19.26;100.00;99825.34;5054813;28;779;-70
2023/07/18 00:10:49;;;;;;;;;;;;;;;19.19;100.00;99812.41;5054489;28;874;-70
2023/07/18 00:13:16;;;;;;;;;;;;;;;19.13;100.00;99811.44;5054541;28;1351;-71
2023/07/18 00:15:44;;;;;;;;;;;;;;;19.08;100.00;99815.63;5054333;28;1182;-71
2023/07/18 00:18:11;;;;;;;;;;;;;;;19.04;100.00;99809.38;5054571;28;834;-70
2023/07/18 00:20:38;;;;;;;;;;;;;;;19.02;100.00;99805.50;5054376;28;893;-70
2023/07/18 00:23:06;;;;;;;;;;;;;;;19.00;100.00;99811.53;5054449;28;952;-71
2023/07/18 00:25:32;;;;;;;;;;;;;;;19.02;100.00;99808.28;5054273;28;1893;-70
2023/07/18 00:27:59;;;;;;;;;;;;;;;19.05;100.00;99810.16;5054331;28;1024;-71
2023/07/18 00:30:26;;;;;;;;;;;;;;;19.05;100.00;99796.94;5054197;28;881;-70
2023/07/18 00:32:52;;;;;;;;;;;;;;;19.07;100.00;99791.66;5054195;28;878;-70
2023/07/18 00:35:19;;;;;;;;;;;;;;;19.09;100.00;99794.00;5054016;28;1189;-71
2023/07/18 00:37:46;;;;;;;;;;;;;;;19.10;100.00;99790.75;5054012;28;1256;-70
2023/07/18 00:40:14;;;;;;;;;;;;;;;19.14;100.00;99782.22;5053856;28;1181;-70
2023/07/18 00:42:42;;;;;;;;;;;;;;;19.16;100.00;99782.50;5054214;28;897;-70
2023/07/18 00:45:11;;;;;;;;;;;;;;;19.16;100.00;99786.09;5053754;28;1894;-70
2023/07/18 00:47:40;;;;;;;;;;;;;;;19.12;100.00;99781.88;5053907;28;1237;-70
2023/07/18 00:50:08;;;;;;;;;;;;;;;19.08;100.00;99790.41;5053702;28;881;-70
2023/07/18 00:52:38;;;;;;;;;;;;;;;19.07;100.00;99786.03;5053366;28;1143;-70
2023/07/18 00:55:05;;;;;;;;;;;;;;;19.05;100.00;99788.53;5053628;28;841;-70
2023/07/18 00:57:35;;;;;;;;;;;;;;;19.03;100.00;99785.41;5053586;28;830;-70
2023/07/18 01:00:09;;;;;;;;;;;;;;;19.02;100.00;99791.50;5052790;28;905;-70
2023/07/18 01:02:36;;;;;;;;;;;;;;;18.96;100.00;99780.88;5053285;28;827;-70
2023/07/18 01:05:02;;;;;;;;;;;;;;;18.93;100.00;99779.00;5035466;28;1922;-70
2023/07/18 01:07:29;;;;;;;;;;;;;;;18.88;100.00;99776.81;5053576;28;842;-70
2023/07/18 01:10:16;;;;;;;;;;;;;;;18.83;100.00;99776.63;5053353;28;901;-70
2023/07/18 01:12:43;;;;;;;;;;;;;;;18.79;100.00;99771.16;5053090;28;1134;-71
2023/07/18 01:15:13;;;;;;;;;;;;;;;18.77;100.00;99768.78;5053191;28;802;-71
2023/07/18 01:17:44;;;;;;;;;;;;;;;18.75;100.00;99765.69;5053244;28;1291;-70
2023/07/18 01:20:16;;;;;;;;;;;;;;;18.73;100.00;99764.56;5053247;28;845;-70
2023/07/18 01:22:44;;;;;;;;;;;;;;;18.72;100.00;99768.63;5053095;28;810;-70
2023/07/18 01:25:11;;;;;;;;;;;;;;;18.75;100.00;99765.69;5052947;28;1890;-70
2023/07/18 01:27:38;;;;;;;;;;;;;;;18.79;100.00;99770.38;5053019;28;842;-70
2023/07/18 01:30:05;;;;;;;;;;;;;;;18.80;100.00;99771.94;5052979;28;811;-70
2023/07/18 01:32:34;;;;;;;;;;;;;;;18.83;100.00;99766.22;5052810;28;806;-70
2023/07/18 01:35:08;;;;;;;;;;;;;;;18.82;100.00;99767.47;5052790;28;955;-70
2023/07/18 01:37:38;;;;;;;;;;;;;;;18.79;100.00;99767.59;5052831;28;802;-70
2023/07/18 01:40:06;;;;;;;;;;;;;;;18.76;100.00;99758.84;5053320;28;807;-70
2023/07/18 01:42:34;;;;;;;;;;;;;;;18.71;100.00;99765.03;5052790;28;890;-70
2023/07/18 01:45:04;;;;;;;;;;;;;;;18.64;100.00;99756.91;5052733;28;1960;-70
2023/07/18 01:47:31;;;;;;;;;;;;;;;18.59;100.00;99751.91;5052632;28;1243;-70
2023/07/18 01:50:04;;;;;;;;;;;;;;;18.54;100.00;99749.69;5034776;28;822;-70
2023/07/18 01:52:31;;;;;;;;;;;;;;;18.50;100.00;99758.25;5052525;28;850;-70
2023/07/18 01:54:59;;;;;;;;;;;;;;;18.48;100.00;99763.53;5052497;28;803;-70
2023/07/18 01:57:30;;;;;;;;;;;;;;;18.55;100.00;99759.69;5052395;28;909;-71
2023/07/18 01:59:59;;;;;;;;;;;;;;;18.57;100.00;99760.00;5052414;28;889;-70
2023/07/18 02:02:28;;;;;;;;;;;;;;;18.54;100.00;99760.91;5052239;28;827;-70
2023/07/18 02:04:56;;;;;;;;;;;;;;;18.51;100.00;99757.00;5034552;28;837;-70
2023/07/18 02:07:23;;;;;;;;;;;;;;;18.48;100.00;99751.56;5052517;28;858;-70
2023/07/18 02:09:50;;;;;;;;;;;;;;;18.45;100.00;99755.25;5052489;28;862;-70
2023/07/18 02:12:16;;;;;;;;;;;;;;;18.46;100.00;99754.81;5033492;28;1271;-69
2023/07/18 02:14:43;;;;;;;;;;;;;;;18.50;100.00;99754.69;5052704;28;783;-70
2023/07/18 02:17:11;;;;;;;;;;;;;;;18.56;100.00;99750.81;5052392;28;1189;-70
2023/07/18 02:19:38;;;;;;;;;;;;;;;18.66;100.00;99759.25;5052202;28;878;-70
2023/07/18 02:22:05;;;;;;;;;;;;;;;18.67;100.00;99747.63;5052265;28;890;-70
2023/07/18 02:24:32;;;;;;;;;;;;;;;18.62;100.00;99750.22;5052089;28;1230;-70
2023/07/18 02:26:59;;;;;;;;;;;;;;;18.60;100.00;99753.47;5052045;28;2273;-70
2023/07/18 02:29:26;;;;;;;;;;;;;;;18.68;100.00;99748.38;5052185;28;827;-70
2023/07/18 02:31:53;;;;;;;;;;;;;;;18.80;100.00;99746.75;5052091;28;861;-70
2023/07/18 02:34:22;;;;;;;;;;;;;;;18.83;100.00;99735.41;5052146;28;827;-70
2023/07/18 02:36:49;;;;;;;;;;;;;;;18.84;100.00;99731.38;5051889;28;830;-70
2023/07/18 02:39:15;;;;;;;;;;;;;;;18.77;100.00;99729.59;5051945;28;879;-70
2023/07/18 02:41:42;;;;;;;;;;;;;;;18.67;100.00;99725.22;5051885;28;878;-70
2023/07/18 02:44:10;;;;;;;;;;;;;;;18.58;100.00;99733.56;5051926;28;920;-69
2023/07/18 02:46:38;;;;;;;;;;;;;;;18.49;100.00;99725.91;5051888;28;1964;-70
2023/07/18 02:49:05;;;;;;;;;;;;;;;18.42;100.00;99723.38;5051624;28;1408;-70
2023/07/18 02:51:33;;;;;;;;;;;;;;;18.38;100.00;99724.75;5033747;28;843;-70
2023/07/18 02:54:00;;;;;;;;;;;;;;;18.34;100.00;99727.69;5051754;28;838;-70
2023/07/18 02:56:26;;;;;;;;;;;;;;;18.38;100.00;99730.34;5051851;28;894;-70
2023/07/18 02:58:53;;;;;;;;;;;;;;;18.42;100.00;99719.81;5051925;28;811;-70
2023/07/18 03:01:20;;;;;;;;;;;;;;;18.49;100.00;99722.31;5051620;28;901;-70
2023/07/18 03:03:47;;;;;;;;;;;;;;;18.52;100.00;99722.19;5033699;28;1271;-70
2023/07/18 03:06:14;;;;;;;;;;;;;;;18.53;100.00;99709.75;5051523;28;1914;-70
2023/07/18 03:08:41;;;;;;;;;;;;;;;18.55;100.00;99706.50;5051830;28;912;-70
2023/07/18 03:11:08;;;;;;;;;;;;;;;18.54;100.00;99700.13;5051570;28;973;-70
2023/07/18 03:13:36;;;;;;;;;;;;;;;18.56;100.00;99708.03;5051494;28;855;-70
2023/07/18 03:16:04;;;;;;;;;;;;;;;18.57;100.00;99704.78;5051582;28;838;-70
2023/07/18 03:18:31;;;;;;;;;;;;;;;18.59;100.00;99715.53;5051406;28;845;-70
2023/07/18 03:20:58;;;;;;;;;;;;;;;18.62;100.00;99709.00;5051546;28;905;-70
2023/07/18 03:23:29;;;;;;;;;;;;;;;18.68;100.00;99703.59;5053250;28;839;-70
2023/07/18 03:25:56;;;;;;;;;;;;;;;18.69;100.00;99705.13;5055242;28;1890;-71
2023/07/18 03:28:23;;;;;;;;;;;;;;;18.71;100.00;99705.47;5055309;28;815;-70
2023/07/18 03:30:50;;;;;;;;;;;;;;;18.72;100.00;99699.41;5055162;28;798;-71
2023/07/18 03:33:17;;;;;;;;;;;;;;;18.74;100.00;99698.94;5055254;28;940;-71
2023/07/18 03:35:44;;;;;;;;;;;;;;;18.76;100.00;99699.28;5055158;28;839;-70
2023/07/18 03:38:11;;;;;;;;;;;;;;;18.81;100.00;99707.09;5055365;28;854;-71
2023/07/18 03:40:38;;;;;;;;;;;;;;;18.86;100.00;99714.91;5037101;28;1180;-70
2023/07/18 03:43:05;;;;;;;;;;;;;;;18.87;100.00;99705.25;5055016;28;943;-70
2023/07/18 03:45:32;;;;;;;;;;;;;;;18.93;100.00;99705.44;5054808;28;1960;-70
2023/07/18 03:47:59;;;;;;;;;;;;;;;19.04;100.00;99708.56;5054678;28;1257;-70
2023/07/18 03:50:25;;;;;;;;;;;;;;;19.15;100.00;99702.50;5037044;28;1374;-71
2023/07/18 04:05:04;;;;;;;;;;;;;;;19.87;100.00;99699.47;5054471;28;1918;-71
2023/07/18 04:07:31;;;;;;;;;;;;;;;20.06;100.00;99708.63;5054569;28;843;-71
2023/07/18 04:09:58;;;;;;;;;;;;;;;20.21;100.00;99709.53;5054437;28;854;-71
2023/07/18 04:12:25;;;;;;;;;;;;;;;20.32;100.00;99709.03;5054441;28;865;-71
2023/07/18 04:14:52;;;;;;;;;;;;;;;20.43;100.00;99716.97;5054605;28;803;-71
2023/07/18 04:17:19;;;;;;;;;;;;;;;20.54;100.00;99706.00;5054270;28;837;-71
2023/07/18 04:19:46;;;;;;;;;;;;;;;20.62;100.00;99700.84;5054407;28;850;-71
2023/07/18 04:22:13;;;;;;;;;;;;;;;20.74;100.00;99702.66;5054242;28;815;-72
2023/07/18 04:24:40;;;;;;;;;;;;;;;20.91;100.00;99703.84;5036527;28;1169;-72
2023/07/18 04:27:06;;;;;;;;;;;;;;;21.09;100.00;99704.97;5054114;28;1883;-72
2023/07/18 04:29:33;;;;;;;;;;;;;;;21.20;100.00;99705.22;5054096;28;905;-72
2023/07/18 04:32:00;;;;;;;;;;;;;;;21.29;100.00;99702.34;5054114;28;850;-71
2023/07/18 04:34:28;;;;;;;;;;;;;;;21.37;100.00;99706.34;5053079;28;818;-71
2023/07/18 04:36:55;;;;;;;;;;;;;;;21.39;100.00;99705.88;5054009;28;822;-71
2023/07/18 04:39:22;;;;;;;;;;;;;;;21.43;100.00;99708.53;5053895;28;842;-71
2023/07/18 04:41:49;;;;;;;;;;;;;;;21.48;100.00;99707.88;5054037;28;822;-71
2023/07/18 04:44:16;;;;;;;;;;;;;;;21.57;100.00;99707.78;5035937;28;1475;-71
2023/07/18 04:46:42;;;;;;;;;;;;;;;21.71;100.00;99709.84;5053986;28;1883;-72
2023/07/18 04:49:10;;;;;;;;;;;;;;;21.95;100.00;99714.66;5053448;28;1345;-71
2023/07/18 04:51:36;;;;;;;;;;;;;;;22.10;100.00;99718.25;5053737;28;854;-71
2023/07/18 04:54:03;;;;;;;;;;;;;;;22.18;100.00;99713.00;5053641;28;842;-70
2023/07/18 04:56:30;;;;;;;;;;;;;;;22.31;100.00;99715.56;5053587;28;842;-71
2023/07/18 04:58:57;;;;;;;;;;;;;;;22.46;100.00;99713.50;5053540;28;842;-72
2023/07/18 05:01:24;;;;;;;;;;;;;;;22.54;100.00;99714.69;5053537;28;846;-71
2023/07/18 05:03:51;;;;;;;;;;;;;;;22.63;100.00;99705.34;5053647;28;846;-72
2023/07/18 05:06:18;;;;;;;;;;;;;;;22.82;100.00;99717.16;5035481;28;1969;-72
2023/07/18 05:08:43;;;;;;;;;;;;;;;23.03;100.00;99715.19;5053374;28;909;-72
2023/07/18 05:11:10;;;;;;;;;;;;;;;23.23;100.00;99714.41;5053389;28;857;-71
2023/07/18 05:13:37;;;;;;;;;;;;;;;23.37;100.00;99718.47;5035430;28;910;-71
2023/07/18 05:16:04;;;;;;;;;;;;;;;23.47;100.00;99724.72;5053628;28;799;-71
2023/07/18 05:18:31;;;;;;;;;;;;;;;23.68;100.00;99722.66;5053112;28;902;-71
2023/07/18 05:20:59;;;;;;;;;;;;;;;23.97;100.00;99721.72;5053335;28;827;-72
2023/07/18 05:23:25;;;;;;;;;;;;;;;24.33;100.00;99725.16;5053314;28;861;-72
2023/07/18 05:25:53;;;;;;;;;;;;;;;24.53;100.00;99727.13;5053313;28;1894;-72
2023/07/18 05:28:20;;;;;;;;;;;;;;;24.69;100.00;99731.34;5034970;28;1248;-73
2023/07/18 05:30:47;;;;;;;;;;;;;;;24.76;100.00;99731.69;5035013;28;1487;-73
2023/07/18 05:33:13;;;;;;;;;;;;;;;24.86;100.00;99724.56;5052534;28;803;-73
2023/07/18 05:35:40;;;;;;;;;;;;;;;25.00;100.00;99727.72;5035046;28;1307;-73
2023/07/18 05:38:07;;;;;;;;;;;;;;;25.20;100.00;99730.44;5052807;28;887;-74
2023/07/18 05:40:34;;;;;;;;;;;;;;;25.50;100.00;99718.75;5052709;28;891;-73
2023/07/18 05:43:00;;;;;;;;;;;;;;;25.76;100.00;99720.66;5052780;28;833;-73
2023/07/18 05:45:27;;;;;;;;;;;;;;;26.12;100.00;99726.66;5052342;28;1944;-75
2023/07/18 05:47:53;;;;;;;;;;;;;;;26.50;99.94;99728.00;5052296;28;1388;-73
2023/07/18 05:50:20;;;;;;;;;;;;;;;26.91;97.78;99726.66;5052754;28;1181;-73
2023/07/18 05:52:48;;;;;;;;;;;;;;;27.26;96.21;99729.72;5052590;28;856;-74
2023/07/18 05:55:16;;;;;;;;;;;;;;;27.54;93.10;99731.66;5052786;28;835;-73
2023/07/18 05:57:43;;;;;;;;;;;;;;;27.57;91.38;99738.38;5052203;28;874;-73
2023/07/18 06:00:11;;;;;;;;;;;;;;;27.69;91.09;99729.28;5048594;28;822;-71
2023/07/18 06:02:38;;;;;;;;;;;;;;;28.06;89.49;99716.72;5032450;28;855;-74
2023/07/18 06:05:07;;;;;;;;;;;;;;;28.61;88.26;99728.19;5032155;28;842;-74
2023/07/18 06:07:34;;;;;;;;;;;;;;;29.23;86.53;99721.91;5031766;28;815;-73
2023/07/18 06:09:59;;;;;;;;;;;;;;;29.91;80.21;99724.69;5032335;28;925;-74
2023/07/18 06:12:27;;;;;;;;;;;;;;;30.51;78.06;99725.59;5032217;28;851;-73
2023/07/18 06:14:55;;;;;;;;;;;;;;;31.00;71.27;99722.41;5032244;28;859;-74
2023/07/18 06:17:22;;;;;;;;;;;;;;;30.55;70.79;99725.28;5032655;28;831;-74
2023/07/18 06:19:48;;;;;;;;;;;;;;;29.98;71.91;99731.06;5032203;28;814;-74
2023/07/18 06:22:15;;;;;;;;;;;;;;;29.74;71.35;99724.13;5032223;28;834;-73
2023/07/18 06:24:41;;;;;;;;;;;;;;;29.62;71.64;99723.50;5032144;28;963;-74
2023/07/18 06:27:08;;;;;;;;;;;;;;;29.63;71.96;99719.34;5032071;28;1947;-72
2023/07/18 06:29:35;;;;;;;;;;;;;;;29.44;72.18;99715.69;5032069;28;818;-72
2023/07/18 06:32:04;;;;;;;;;;;;;;;29.50;73.25;99705.78;5032439;28;869;-73
2023/07/18 06:34:33;;;;;;;;;;;;;;;29.90;71.97;99710.97;5031883;28;857;-74
2023/07/18 06:37:02;;;;;;;;;;;;;;;30.32;70.01;99712.16;5032094;28;890;-73
2023/07/18 06:39:29;;;;;;;;;;;;;;;30.80;69.37;99714.47;5031936;28;892;-74
2023/07/18 06:41:57;;;;;;;;;;;;;;;30.99;68.36;99717.25;5031988;28;870;-72
2023/07/18 06:44:24;;;;;;;;;;;;;;;31.67;66.01;99708.88;5031931;28;814;-74
2023/07/18 06:46:51;;;;;;;;;;;;;;;32.10;65.07;99707.66;5032079;28;1953;-74
2023/07/18 06:49:18;;;;;;;;;;;;;;;31.75;65.78;99703.28;5031564;28;1363;-74
2023/07/18 06:51:46;;;;;;;;;;;;;;;32.21;64.50;99703.75;5031914;28;822;-73
2023/07/18 06:54:13;;;;;;;;;;;;;;;33.27;61.74;99705.19;5031915;28;884;-73
2023/07/18 06:56:42;;;;;;;;;;;;;;;34.39;59.13;99703.06;5031991;28;862;-74
2023/07/18 06:59:09;;;;;;;;;;;;;;;35.33;56.27;99700.31;5034699;28;936;-74
2023/07/18 07:01:35;;;;;;;;;;;;;;;35.86;52.22;99700.69;5035980;28;851;-73
2023/07/18 07:04:02;;;;;;;;;;;;;;;36.24;49.62;99697.59;5018122;28;1229;-74
2023/07/18 07:06:30;;;;;;;;;;;;;;;36.90;45.67;99694.56;5035878;28;1914;-74
2023/07/18 07:08:57;;;;;;;;;;;;;;;37.26;42.25;99702.63;5036005;28;906;-74
2023/07/18 07:11:27;;;;;;;;;;;;;;;37.16;40.64;99696.03;5035984;28;874;-71
2023/07/18 07:13:54;;;;;;;;;;;;;;;37.14;40.12;99690.84;5018098;28;791;-75
2023/07/18 07:16:21;;;;;;;;;;;;;;;37.24;38.93;99693.81;5035606;28;885;-70
2023/07/18 07:18:50;;;;;;;;;;;;;;;37.07;39.17;99688.81;5035664;28;843;-71
2023/07/18 07:21:17;;;;;;;;;;;;;;;36.89;38.50;99690.88;5035464;28;799;-73
2023/07/18 07:23:44;;;;;;;;;;;;;;;37.03;38.68;99690.59;5035527;28;878;-72
2023/07/18 07:26:10;;;;;;;;;;;;;;;37.32;37.74;99679.31;5035400;28;1910;-72
2023/07/18 07:28:38;;;;;;;;;;;;;;;37.32;37.82;99679.31;5035530;28;855;-71
2023/07/18 07:31:05;;;;;;;;;;;;;;;37.13;37.66;99686.47;5035419;28;883;-70
2023/07/18 07:33:33;;;;;;;;;;;;;;;37.19;37.61;99677.53;5035295;28;851;-71
2023/07/18 07:35:59;;;;;;;;;;;;;;;37.37;37.39;99672.53;5035475;28;827;-71
2023/07/18 07:38:27;;;;;;;;;;;;;;;37.44;37.43;99680.31;5035625;28;814;-72
2023/07/18 07:40:55;;;;;;;;;;;;;;;37.54;36.54;99680.41;5035240;28;799;-71
2023/07/18 07:43:22;;;;;;;;;;;;;;;37.69;35.86;99680.22;5035353;28;1334;-71
2023/07/18 07:45:49;;;;;;;;;;;;;;;37.76;35.25;99681.47;5035151;28;1949;-70
2023/07/18 07:48:15;;;;;;;;;;;;;;;37.59;34.53;99680.13;5034970;28;1320;-69
2023/07/18 07:50:42;;;;;;;;;;;;;;;37.64;34.44;99678.38;5033912;28;862;-71
2023/07/18 07:53:09;;;;;;;;;;;;;;;38.13;34.27;99673.66;5034957;28;831;-68
2023/07/18 07:55:36;;;;;;;;;;;;;;;38.06;31.72;99691.06;5034733;28;1014;-69
2023/07/18 07:58:03;;;;;;;;;;;;;;;37.79;32.47;99678.16;5034711;28;862;-69
2023/07/18 08:00:30;;;;;;;;;;;;;;;38.08;32.02;99691.97;5016977;28;1270;-69
2023/07/18 08:02:57;;;;;;;;;;;;;;;38.25;31.88;99684.63;5034675;28;882;-68
2023/07/18 08:05:25;;;;;;;;;;;;;;;38.26;31.54;99684.03;5034614;28;1981;-70
2023/07/18 08:07:52;;;;;;;;;;;;;;;38.43;31.25;99688.94;5034527;28;1253;-69
2023/07/18 08:10:19;;;;;;;;;;;;;;;38.31;30.90;99687.97;5033400;28;1678;-69
2023/07/18 08:12:46;;;;;;;;;;;;;;;38.47;30.71;99686.34;5034512;28;1185;-68
2023/07/18 08:15:13;;;;;;;;;;;;;;;39.07;29.39;99682.25;5034602;28;1202;-68
2023/07/18 08:17:40;;;;;;;;;;;;;;;38.99;28.85;99680.28;5034752;28;1248;-69
2023/07/18 08:20:08;;;;;;;;;;;;;;;38.88;28.91;99680.06;5035356;28;830;-68
2023/07/18 08:22:35;;;;;;;;;;;;;;;37.93;29.72;99677.75;5034660;28;842;-73
2023/07/18 08:25:03;;;;;;;;;;;;;;;36.71;31.58;99672.84;5034751;28;838;-74
2023/07/18 08:27:30;;;;;;;;;;;;;;;35.72;32.98;99682.91;5017190;28;1975;-72
2023/07/18 08:29:56;;;;;;;;;;;;;;;34.74;34.52;99681.28;5034712;28;906;-73
2023/07/18 08:32:23;;;;;;;;;;;;;;;33.92;35.85;99690.72;5034721;28;947;-73
2023/07/18 08:34:50;;;;;;;;;;;;;;;33.49;36.06;99689.44;5034585;28;814;-73
2023/07/18 08:37:17;;;;;;;;;;;;;;;33.10;37.30;99688.47;5034588;28;803;-73
2023/07/18 08:39:45;;;;;;;;;;;;;;;32.69;37.54;99690.09;5034527;28;886;-75
2023/07/18 08:42:13;;;;;;;;;;;;;;;32.32;38.25;99699.84;5034458;28;827;-75
2023/07/18 08:44:41;;;;;;;;;;;;;;;32.13;38.71;99697.19;5034320;28;858;-75
2023/07/18 08:47:09;;;;;;;;;;;;;;;32.11;38.65;99694.91;5034326;28;1889;-76
2023/07/18 08:49:38;;;;;;;;;;;;;;;32.11;39.19;99689.19;5033298;28;1221;-75
2023/07/18 08:52:05;;;;;;;;;;;;;;;32.14;39.23;99687.31;5034125;28;863;-76
2023/07/18 08:54:37;;;;;;;;;;;;;;;32.10;39.34;99684.03;5033936;28;853;-75
2023/07/18 08:57:06;;;;;;;;;;;;;;;32.19;39.56;99685.63;5033937;28;1105;-75
2023/07/18 08:59:35;;;;;;;;;;;;;;;32.32;39.38;99674.88;5034037;28;856;-74
2023/07/18 09:02:02;;;;;;;;;;;;;;;32.40;38.75;99680.69;5033889;28;889;-74
2023/07/18 09:04:30;;;;;;;;;;;;;;;32.63;38.48;99677.28;5033787;28;811;-74
2023/07/18 09:06:58;;;;;;;;;;;;;;;32.92;37.53;99678.81;5033754;28;1922;-73
2023/07/18 09:09:25;;;;;;;;;;;;;;;33.30;36.78;99675.41;5015922;28;1749;-74
2023/07/18 09:11:57;;;;;;;;;;;;;;;33.86;35.96;99675.81;5033776;28;865;-73
2023/07/18 09:14:27;;;;;;;;;;;;;;;34.71;34.54;99678.78;5015890;28;1401;-70
2023/07/18 09:47:52;;;;;;;;;;;;;;;37.14;29.01;99646.88;4990904;28;1369;-73
2023/07/18 09:50:19;;;;;;;;;;;;;;;37.16;28.72;99644.94;4976204;28;1180;-68
2023/07/18 09:52:47;;;;;;;;;;;;;;;37.20;29.11;99644.50;4993629;28;863;-70
2023/07/18 09:55:14;;;;;;;;;;;;;;;37.32;28.91;99634.00;4993082;28;819;-68
2023/07/18 09:57:41;;;;;;;;;;;;;;;37.23;29.04;99626.03;4993309;28;1019;-69
2023/07/18 10:00:11;;;;;;;;;;;;;;;37.17;28.67;99632.06;4993259;28;858;-68
2023/07/18 10:02:40;;;;;;;;;;;;;;;37.06;28.53;99626.78;4993220;28;972;-68
2023/07/18 10:05:09;;;;;;;;;;;;;;;36.96;28.54;99620.94;4993299;28;819;-68
2023/07/18 10:07:38;;;;;;;;;;;;;;;36.95;28.59;99619.41;4993209;28;1910;-69
2023/07/18 10:10:07;;;;;;;;;;;;;;;37.05;29.09;99613.75;4993136;28;811;-69
2023/07/18 10:12:37;;;;;;;;;;;;;;;37.28;28.49;99601.97;4992991;28;803;-68
2023/07/18 10:15:05;;;;;;;;;;;;;;;37.36;28.88;99610.50;4992885;28;834;-67
2023/07/18 10:17:32;;;;;;;;;;;;;;;37.30;28.46;99610.78;4992606;28;843;-68
2023/07/18 10:20:01;;;;;;;;;;;;;;;37.38;28.66;99607.78;4992877;28;803;-68
2023/07/18 10:22:29;;;;;;;;;;;;;;;37.64;27.94;99602.63;4992960;28;914;-69
2023/07/18 10:25:16;;;;;;;;;;;;;;;37.59;28.65;99604.44;4992908;28;1179;-68
2023/07/18 10:27:44;;;;;;;;;;;;;;;38.04;27.66;99593.56;4982377;28;1131;-68
2023/07/18 10:30:12;;;;;;;;;;;;;;;38.33;27.52;99601.56;4992874;28;1159;-68
2023/07/18 10:32:42;;;;;;;;;;;;;;;38.29;27.33;99592.59;4992076;28;907;-69
2023/07/18 10:38:13;;;;;;;;;;;;;;;37.97;27.13;99597.31;5006348;28;795;-72
2023/07/18 10:40:44;;;;;;;;;;;;;;;38.02;27.17;99593.38;5012736;28;819;-70
2023/07/18 10:43:15;;;;;;;;;;;;;;;38.05;26.68;99586.47;5012757;28;901;-70
2023/07/18 10:45:43;;;;;;;;;;;;;;;38.19;26.77;99583.91;5012217;28;1886;-69
2023/07/18 10:48:12;;;;;;;;;;;;;;;38.03;26.68;99586.31;5012244;28;1493;-70
2023/07/18 10:50:40;;;;;;;;;;;;;;;37.93;26.39;99577.56;5012110;28;881;-68
2023/07/18 10:53:28;;;;;;;;;;;;;;;38.04;26.39;99584.16;5012337;28;902;-68
2023/07/18 10:55:56;;;;;;;;;;;;;;;38.47;26.38;99578.78;4987575;28;1334;-72
2023/07/18 10:58:23;;;;;;;;;;;;;;;38.96;25.55;99577.50;5012448;28;838;-73
2023/07/18 11:00:50;;;;;;;;;;;;;;;39.11;25.52;99570.63;5012268;28;811;-72
2023/07/18 11:03:24;;;;;;;;;;;;;;;39.67;24.76;99568.81;5012260;28;875;-71
2023/07/18 11:05:51;;;;;;;;;;;;;;;39.67;24.22;99574.59;5012116;28;1918;-72
2023/07/18 11:08:25;;;;;;;;;;;;;;;39.04;24.76;99568.66;5012710;28;795;-72
2023/07/18 11:10:57;;;;;;;;;;;;;;;39.01;24.69;99569.91;5004508;28;815;-69
2023/07/18 11:13:33;;;;;;;;;;;;;;;39.25;24.34;99558.59;5011963;28;874;-69
2023/07/18 11:16:06;;;;;;;;;;;;;;;39.12;24.21;99562.75;5012027;28;851;-69
2023/07/18 11:18:34;;;;;;;;;;;;;;;38.83;24.37;99566.38;5012189;28;896;-71
2023/07/18 11:21:02;;;;;;;;;;;;;;;38.85;24.55;99572.31;5012139;28;831;-70
2023/07/18 11:23:30;;;;;;;;;;;;;;;38.61;24.59;99562.59;5012371;28;866;-70
2023/07/18 11:25:57;;;;;;;;;;;;;;;37.98;25.32;99565.00;5012146;28;1890;-72
2023/07/18 11:28:32;;;;;;;;;;;;;;;37.83;25.08;99547.94;5011928;28;855;-68
2023/07/18 11:30:59;;;;;;;;;;;;;;;37.51;26.53;99554.75;5012311;28;866;-70
2023/07/18 11:33:29;;;;;;;;;;;;;;;37.24;26.73;99563.41;5011995;28;827;-70
2023/07/18 11:35:56;;;;;;;;;;;;;;;37.17;27.02;99554.28;5011627;28;871;-72
2023/07/18 11:38:27;;;;;;;;;;;;;;;37.35;27.08;99554.22;5011844;28;873;-69
2023/07/18 11:40:54;;;;;;;;;;;;;;;38.82;25.94;99547.53;5012111;28;823;-69
2023/07/18 11:43:21;;;;;;;;;;;;;;;39.65;24.40;99543.44;5012119;28;1174;-70
2023/07/18 11:45:54;;;;;;;;;;;;;;;40.14;24.27;99537.44;5015480;28;1949;-70
2023/07/18 11:48:21;;;;;;;;;;;;;;;40.11;24.21;99538.66;5015115;28;1297;-72
2023/07/18 11:50:48;;;;;;;;;;;;;;;39.70;24.21;99535.81;5015257;28;854;-69
2023/07/18 11:53:25;;;;;;;;;;;;;;;39.82;24.25;99525.09;5015195;28;893;-68
2023/07/18 11:55:54;;;;;;;;;;;;;;;40.07;24.02;99526.78;5015273;28;928;-71
2023/07/18 11:58:21;;;;;;;;;;;;;;;39.01;24.88;99535.22;5015342;28;858;-71
2023/07/18 12:00:48;;;;;;;;;;;;;;;39.26;24.69;99534.09;5015032;28;882;-69
2023/07/18 12:03:16;;;;;;;;;;;;;;;39.68;24.21;99529.88;5015236;28;842;-70
2023/07/18 12:05:43;;;;;;;;;;;;;;;39.38;24.53;99529.19;5015088;28;1973;-71
2023/07/18 12:08:09;;;;;;;;;;;;;;;39.77;24.60;99526.91;5015330;28;811;-69
2023/07/18 12:10:36;;;;;;;;;;;;;;;40.35;23.77;99517.19;5015029;28;814;-68
2023/07/18 12:13:03;;;;;;;;;;;;;;;40.88;23.36;99525.72;5014815;28;815;-69
2023/07/18 12:15:30;;;;;;;;;;;;;;;41.08;23.26;99531.34;5014850;28;867;-69
2023/07/18 12:17:57;;;;;;;;;;;;;;;41.06;23.34;99522.53;5014770;28;838;-70
2023/07/18 12:20:25;;;;;;;;;;;;;;;41.34;22.75;99512.03;5014987;28;881;-69
2023/07/18 12:22:52;;;;;;;;;;;;;;;41.80;22.31;99522.13;5014575;28;903;-69
2023/07/18 12:25:19;;;;;;;;;;;;;;;42.09;22.14;99523.91;5014547;28;827;-69
2023/07/18 12:27:46;;;;;;;;;;;;;;;42.24;21.77;99514.66;5014632;28;886;-70
2023/07/18 12:30:13;;;;;;;;;;;;;;;42.46;20.93;99505.75;4993748;28;1366;-68
2023/07/18 12:32:40;;;;;;;;;;;;;;;42.00;21.64;99506.00;5013549;28;827;-68
2023/07/18 12:35:07;;;;;;;;;;;;;;;41.35;22.13;99496.88;5014600;28;807;-69
2023/07/18 12:37:33;;;;;;;;;;;;;;;41.26;22.16;99503.56;5014552;28;897;-69
2023/07/18 12:39:59;;;;;;;;;;;;;;;41.44;22.05;99495.28;5014764;28;890;-70
2023/07/18 12:42:26;;;;;;;;;;;;;;;41.60;21.71;99492.63;5014837;28;803;-71
2023/07/18 12:44:54;;;;;;;;;;;;;;;42.10;21.33;99491.34;5014679;28;802;-72
2023/07/18 12:47:21;;;;;;;;;;;;;;;41.73;21.56;99497.78;5014189;28;1886;-70
2023/07/18 12:49:48;;;;;;;;;;;;;;;41.44;21.30;99498.16;5014629;28;826;-70
2023/07/18 12:52:15;;;;;;;;;;;;;;;41.47;21.68;99496.16;5014617;28;893;-69
2023/07/18 12:54:43;;;;;;;;;;;;;;;41.73;21.85;99499.94;5014281;28;866;-70
2023/07/18 12:57:09;;;;;;;;;;;;;;;41.77;21.52;99500.94;5013641;28;807;-71
2023/07/18 12:59:36;;;;;;;;;;;;;;;41.69;21.53;99493.88;5014277;28;839;-70
2023/07/18 13:02:03;;;;;;;;;;;;;;;41.28;21.61;99492.09;5014024;28;855;-71
2023/07/18 13:04:30;;;;;;;;;;;;;;;39.63;23.08;99484.72;5014173;28;852;-69
2023/07/18 13:06:56;;;;;;;;;;;;;;;37.74;24.86;99494.63;5013679;28;1971;-69
2023/07/18 13:09:24;;;;;;;;;;;;;;;36.21;26.82;99493.75;5014034;28;921;-72
2023/07/18 13:11:52;;;;;;;;;;;;;;;35.04;28.23;99500.91;4996442;28;1557;-68
2023/07/18 13:14:20;;;;;;;;;;;;;;;34.26;29.33;99511.88;5013865;28;811;-68
2023/07/18 13:16:47;;;;;;;;;;;;;;;33.74;29.83;99503.47;5014016;28;855;-70
2023/07/18 13:19:14;;;;;;;;;;;;;;;33.29;30.39;99507.03;5014205;28;1178;-70
2023/07/18 13:21:42;;;;;;;;;;;;;;;33.79;30.17;99498.13;5013824;28;1149;-70
2023/07/18 13:24:07;;;;;;;;;;;;;;;35.78;28.08;99502.38;5013768;28;1260;-68
2023/07/18 13:26:34;;;;;;;;;;;;;;;37.54;26.29;99502.44;5013863;28;1949;-70
2023/07/18 13:29:01;;;;;;;;;;;;;;;38.62;24.36;99489.03;5013626;28;843;-69
2023/07/18 13:31:28;;;;;;;;;;;;;;;39.19;23.38;99487.41;4995903;28;1324;-68
2023/07/18 13:33:55;;;;;;;;;;;;;;;38.75;22.98;99493.56;5013480;28;794;-70
2023/07/18 13:36:22;;;;;;;;;;;;;;;38.08;23.83;99495.06;5013432;28;874;-67
2023/07/18 13:38:49;;;;;;;;;;;;;;;38.37;23.90;99504.50;5013838;28;889;-69
2023/07/18 13:41:16;;;;;;;;;;;;;;;39.10;23.35;99499.03;5013430;28;806;-69
2023/07/18 13:43:43;;;;;;;;;;;;;;;39.35;22.83;99490.72;5013303;28;849;-71
2023/07/18 13:46:11;;;;;;;;;;;;;;;38.69;23.31;99496.78;5013258;28;1949;-68
2023/07/18 13:48:37;;;;;;;;;;;;;;;38.27;24.40;99497.97;4993643;28;1231;-68